sensor_id;sensor_type;location;lat;lon;timestamp;P1;durP1;ratioP1;P2;durP2;ratioP2
41897;SDS011;27576;53.366;-1.498;2023-03-23T00:01:19;4.38;;;1.30;;
41897;SDS011;27576;53.366;-1.498;2023-03-23T00:03:47;2.33;;;1.30;;
41897;SDS011;27576;53.366;-1.498;2023-03-23T00:06:14;4.90;;;1.48;;
41897;SDS011;27576;53.366;-1.498;2023-03-23T00:08:42;7.72;;;1.73;;
41897;SDS011;27576;53.366;-1.498;2023-03-23T00:13:40;3.88;;;1.20;;
41897;SDS011;27576;53.366;-1.498;2023-03-23T00:16:06;5.90;;;1.48;;
41897;SDS011;27576;53.366;-1.498;2023-03-23T00:18:46;5.95;;;1.48;;
41897;SDS011;27576;53.366;-1.498;2023-03-23T00:21:22;6.40;;;1.65;;
41897;SDS011;27576;53.366;-1.498;2023-03-23T00:24:08;6.15;;;1.48;;
41897;SDS011;27576;53.366;-1.498;2023-03-23T00:26:36;7.40;;;1.98;;
41897;SDS011;27576;53.366;-1.498;2023-03-23T00:29:05;7.68;;;1.80;;
41897;SDS011;27576;53.366;-1.498;2023-03-23T00:31:32;4.85;;;1.40;;
41897;SDS011;27576;53.366;-1.498;2023-03-23T00:34:00;7.35;;;2.30;;
41897;SDS011;27576;53.366;-1.498;2023-03-23T00:36:28;5.30;;;1.83;;
41897;SDS011;27576;53.366;-1.498;2023-03-23T00:38:55;8.35;;;1.95;;
41897;SDS011;27576;53.366;-1.498;2023-03-23T00:41:23;9.40;;;2.22;;
41897;SDS011;27576;53.366;-1.498;2023-03-23T00:43:52;10.68;;;2.63;;
41897;SDS011;27576;53.366;-1.498;2023-03-23T00:46:18;11.10;;;2.00;;
41897;SDS011;27576;53.366;-1.498;2023-03-23T00:48:45;10.60;;;2.22;;
41897;SDS011;27576;53.366;-1.498;2023-03-23T00:51:11;8.93;;;2.25;;
41897;SDS011;27576;53.366;-1.498;2023-03-23T00:53:38;7.07;;;2.10;;
41897;SDS011;27576;53.366;-1.498;2023-03-23T00:56:04;9.10;;;2.58;;
41897;SDS011;27576;53.366;-1.498;2023-03-23T00:58:30;8.05;;;1.98;;
41897;SDS011;27576;53.366;-1.498;2023-03-23T01:00:55;6.85;;;1.95;;
41897;SDS011;27576;53.366;-1.498;2023-03-23T01:03:21;6.97;;;2.08;;
41897;SDS011;27576;53.366;-1.498;2023-03-23T01:05:50;6.93;;;1.95;;
41897;SDS011;27576;53.366;-1.498;2023-03-23T01:08:16;10.00;;;2.08;;
41897;SDS011;27576;53.366;-1.498;2023-03-23T01:10:43;9.00;;;1.80;;
41897;SDS011;27576;53.366;-1.498;2023-03-23T01:13:10;8.55;;;1.90;;
41897;SDS011;27576;53.366;-1.498;2023-03-23T01:15:35;8.68;;;2.10;;
41897;SDS011;27576;53.366;-1.498;2023-03-23T01:18:01;8.07;;;2.10;;
41897;SDS011;27576;53.366;-1.498;2023-03-23T01:20:27;9.48;;;2.40;;
41897;SDS011;27576;53.366;-1.498;2023-03-23T01:22:56;10.73;;;2.17;;
41897;SDS011;27576;53.366;-1.498;2023-03-23T01:25:25;8.38;;;1.67;;
41897;SDS011;27576;53.366;-1.498;2023-03-23T01:27:53;8.38;;;1.85;;
41897;SDS011;27576;53.366;-1.498;2023-03-23T01:30:18;8.32;;;2.20;;
41897;SDS011;27576;53.366;-1.498;2023-03-23T01:32:44;8.57;;;2.20;;
41897;SDS011;27576;53.366;-1.498;2023-03-23T01:35:11;8.43;;;1.77;;
41897;SDS011;27576;53.366;-1.498;2023-03-23T01:37:38;11.57;;;2.30;;
41897;SDS011;27576;53.366;-1.498;2023-03-23T01:40:03;9.65;;;2.03;;
41897;SDS011;27576;53.366;-1.498;2023-03-23T01:42:31;12.45;;;2.35;;
41897;SDS011;27576;53.366;-1.498;2023-03-23T01:48:01;10.13;;;2.08;;
41897;SDS011;27576;53.366;-1.498;2023-03-23T01:50:32;9.68;;;1.77;;
41897;SDS011;27576;53.366;-1.498;2023-03-23T01:53:02;13.23;;;2.35;;
41897;SDS011;27576;53.366;-1.498;2023-03-23T01:55:33;11.60;;;2.28;;
41897;SDS011;27576;53.366;-1.498;2023-03-23T01:58:01;10.00;;;2.38;;
41897;SDS011;27576;53.366;-1.498;2023-03-23T02:00:27;16.13;;;2.53;;
41897;SDS011;27576;53.366;-1.498;2023-03-23T02:02:53;6.18;;;1.90;;
41897;SDS011;27576;53.366;-1.498;2023-03-23T02:05:22;5.47;;;1.83;;
41897;SDS011;27576;53.366;-1.498;2023-03-23T02:07:56;7.75;;;2.05;;
41897;SDS011;27576;53.366;-1.498;2023-03-23T02:10:28;9.68;;;2.03;;
41897;SDS011;27576;53.366;-1.498;2023-03-23T02:12:58;11.00;;;2.38;;
41897;SDS011;27576;53.366;-1.498;2023-03-23T02:15:26;13.05;;;2.65;;
41897;SDS011;27576;53.366;-1.498;2023-03-23T02:18:03;8.65;;;2.88;;
41897;SDS011;27576;53.366;-1.498;2023-03-23T02:31:56;11.63;;;1.80;;
41897;SDS011;27576;53.366;-1.498;2023-03-23T02:34:28;12.85;;;2.75;;
41897;SDS011;27576;53.366;-1.498;2023-03-23T02:37:01;14.40;;;2.67;;
41897;SDS011;27576;53.366;-1.498;2023-03-23T02:39:56;13.38;;;2.83;;
41897;SDS011;27576;53.366;-1.498;2023-03-23T02:42:26;12.85;;;2.53;;
41897;SDS011;27576;53.366;-1.498;2023-03-23T02:44:56;12.02;;;2.38;;
41897;SDS011;27576;53.366;-1.498;2023-03-23T02:47:24;12.52;;;2.22;;
41897;SDS011;27576;53.366;-1.498;2023-03-23T02:49:53;13.00;;;2.28;;
41897;SDS011;27576;53.366;-1.498;2023-03-23T02:52:25;12.10;;;2.63;;
41897;SDS011;27576;53.366;-1.498;2023-03-23T02:54:54;6.70;;;2.13;;
41897;SDS011;27576;53.366;-1.498;2023-03-23T02:57:22;11.98;;;2.80;;
41897;SDS011;27576;53.366;-1.498;2023-03-23T02:59:49;8.32;;;2.45;;
41897;SDS011;27576;53.366;-1.498;2023-03-23T03:02:31;7.63;;;2.20;;
41897;SDS011;27576;53.366;-1.498;2023-03-23T03:15:51;12.90;;;2.78;;
41897;SDS011;27576;53.366;-1.498;2023-03-23T03:18:28;12.73;;;2.40;;
41897;SDS011;27576;53.366;-1.498;2023-03-23T03:21:01;17.00;;;2.90;;
41897;SDS011;27576;53.366;-1.498;2023-03-23T03:23:32;14.13;;;2.72;;
41897;SDS011;27576;53.366;-1.498;2023-03-23T03:26:00;8.63;;;2.50;;
41897;SDS011;27576;53.366;-1.498;2023-03-23T03:28:29;11.30;;;2.45;;
41897;SDS011;27576;53.366;-1.498;2023-03-23T03:30:57;17.25;;;3.17;;
41897;SDS011;27576;53.366;-1.498;2023-03-23T03:33:27;10.73;;;3.00;;
41897;SDS011;27576;53.366;-1.498;2023-03-23T03:35:56;9.70;;;3.05;;
41897;SDS011;27576;53.366;-1.498;2023-03-23T03:38:23;13.60;;;2.72;;
41897;SDS011;27576;53.366;-1.498;2023-03-23T03:40:49;14.13;;;3.25;;
41897;SDS011;27576;53.366;-1.498;2023-03-23T03:43:15;12.68;;;2.90;;
41897;SDS011;27576;53.366;-1.498;2023-03-23T03:45:40;13.25;;;2.95;;
41897;SDS011;27576;53.366;-1.498;2023-03-23T03:48:07;17.48;;;3.15;;
41897;SDS011;27576;53.366;-1.498;2023-03-23T03:50:32;14.80;;;2.67;;
41897;SDS011;27576;53.366;-1.498;2023-03-23T03:52:58;18.48;;;3.42;;
41897;SDS011;27576;53.366;-1.498;2023-03-23T03:55:23;15.98;;;3.45;;
41897;SDS011;27576;53.366;-1.498;2023-03-23T03:57:49;14.45;;;2.70;;
41897;SDS011;27576;53.366;-1.498;2023-03-23T04:00:15;15.38;;;3.08;;
41897;SDS011;27576;53.366;-1.498;2023-03-23T04:02:42;15.57;;;3.47;;
41897;SDS011;27576;53.366;-1.498;2023-03-23T04:05:09;22.25;;;3.38;;
41897;SDS011;27576;53.366;-1.498;2023-03-23T04:07:35;12.68;;;2.88;;
41897;SDS011;27576;53.366;-1.498;2023-03-23T04:10:07;13.75;;;3.25;;
41897;SDS011;27576;53.366;-1.498;2023-03-23T04:12:34;12.32;;;2.97;;
41897;SDS011;27576;53.366;-1.498;2023-03-23T04:15:01;12.48;;;2.80;;
41897;SDS011;27576;53.366;-1.498;2023-03-23T04:17:26;16.98;;;3.05;;
41897;SDS011;27576;53.366;-1.498;2023-03-23T04:19:53;13.20;;;3.28;;
41897;SDS011;27576;53.366;-1.498;2023-03-23T04:22:21;19.20;;;3.33;;
41897;SDS011;27576;53.366;-1.498;2023-03-23T04:24:49;15.18;;;2.92;;
41897;SDS011;27576;53.366;-1.498;2023-03-23T04:27:16;21.90;;;3.15;;
41897;SDS011;27576;53.366;-1.498;2023-03-23T04:29:42;16.38;;;3.55;;
41897;SDS011;27576;53.366;-1.498;2023-03-23T04:32:13;17.02;;;3.08;;
41897;SDS011;27576;53.366;-1.498;2023-03-23T04:34:39;11.82;;;2.67;;
41897;SDS011;27576;53.366;-1.498;2023-03-23T04:37:05;16.27;;;3.30;;
41897;SDS011;27576;53.366;-1.498;2023-03-23T04:39:31;16.58;;;3.17;;
41897;SDS011;27576;53.366;-1.498;2023-03-23T04:41:58;16.40;;;3.55;;
41897;SDS011;27576;53.366;-1.498;2023-03-23T04:44:25;25.02;;;2.90;;
41897;SDS011;27576;53.366;-1.498;2023-03-23T04:46:52;21.65;;;3.10;;
41897;SDS011;27576;53.366;-1.498;2023-03-23T04:49:19;25.30;;;3.10;;
41897;SDS011;27576;53.366;-1.498;2023-03-23T04:51:46;19.00;;;3.53;;
41897;SDS011;27576;53.366;-1.498;2023-03-23T04:54:13;19.13;;;3.35;;
41897;SDS011;27576;53.366;-1.498;2023-03-23T04:56:39;17.80;;;3.42;;
41897;SDS011;27576;53.366;-1.498;2023-03-23T04:59:06;12.40;;;3.05;;
41897;SDS011;27576;53.366;-1.498;2023-03-23T05:01:32;14.55;;;3.35;;
41897;SDS011;27576;53.366;-1.498;2023-03-23T05:04:01;17.15;;;3.47;;
41897;SDS011;27576;53.366;-1.498;2023-03-23T05:06:27;16.42;;;3.38;;
41897;SDS011;27576;53.366;-1.498;2023-03-23T05:08:52;19.67;;;4.00;;
41897;SDS011;27576;53.366;-1.498;2023-03-23T05:11:17;18.52;;;3.15;;
41897;SDS011;27576;53.366;-1.498;2023-03-23T05:13:43;18.05;;;4.15;;
41897;SDS011;27576;53.366;-1.498;2023-03-23T05:16:09;20.17;;;4.00;;
41897;SDS011;27576;53.366;-1.498;2023-03-23T05:18:34;21.08;;;4.03;;
41897;SDS011;27576;53.366;-1.498;2023-03-23T05:21:00;19.38;;;3.50;;
41897;SDS011;27576;53.366;-1.498;2023-03-23T05:23:27;26.60;;;5.03;;
41897;SDS011;27576;53.366;-1.498;2023-03-23T05:25:56;19.85;;;3.50;;
41897;SDS011;27576;53.366;-1.498;2023-03-23T05:28:25;14.50;;;3.65;;
41897;SDS011;27576;53.366;-1.498;2023-03-23T05:30:51;21.92;;;4.82;;
41897;SDS011;27576;53.366;-1.498;2023-03-23T05:33:17;20.45;;;3.55;;
41897;SDS011;27576;53.366;-1.498;2023-03-23T05:35:43;20.83;;;4.22;;
41897;SDS011;27576;53.366;-1.498;2023-03-23T05:38:10;22.27;;;4.30;;
41897;SDS011;27576;53.366;-1.498;2023-03-23T05:40:35;19.42;;;4.45;;
41897;SDS011;27576;53.366;-1.498;2023-03-23T05:43:01;21.23;;;3.47;;
41897;SDS011;27576;53.366;-1.498;2023-03-23T05:45:26;18.08;;;3.28;;
41897;SDS011;27576;53.366;-1.498;2023-03-23T05:47:51;20.95;;;3.90;;
41897;SDS011;27576;53.366;-1.498;2023-03-23T05:50:17;19.02;;;3.92;;
41897;SDS011;27576;53.366;-1.498;2023-03-23T05:52:43;19.15;;;3.35;;
41897;SDS011;27576;53.366;-1.498;2023-03-23T05:55:09;16.00;;;3.58;;
41897;SDS011;27576;53.366;-1.498;2023-03-23T05:57:35;18.13;;;3.83;;
41897;SDS011;27576;53.366;-1.498;2023-03-23T06:00:01;25.48;;;4.25;;
41897;SDS011;27576;53.366;-1.498;2023-03-23T06:02:36;23.42;;;3.67;;
41897;SDS011;27576;53.366;-1.498;2023-03-23T06:05:02;17.55;;;3.72;;
41897;SDS011;27576;53.366;-1.498;2023-03-23T06:07:27;22.52;;;3.90;;
41897;SDS011;27576;53.366;-1.498;2023-03-23T06:09:52;20.48;;;4.00;;
41897;SDS011;27576;53.366;-1.498;2023-03-23T06:12:18;26.52;;;3.95;;
41897;SDS011;27576;53.366;-1.498;2023-03-23T06:14:45;22.90;;;4.78;;
41897;SDS011;27576;53.366;-1.498;2023-03-23T06:17:11;29.48;;;5.22;;
41897;SDS011;27576;53.366;-1.498;2023-03-23T06:19:38;21.90;;;5.10;;
41897;SDS011;27576;53.366;-1.498;2023-03-23T06:22:03;19.10;;;4.20;;
41897;SDS011;27576;53.366;-1.498;2023-03-23T06:24:30;25.33;;;4.43;;
41897;SDS011;27576;53.366;-1.498;2023-03-23T06:26:55;27.92;;;5.28;;
41897;SDS011;27576;53.366;-1.498;2023-03-23T06:29:21;25.27;;;4.82;;
41897;SDS011;27576;53.366;-1.498;2023-03-23T06:31:47;23.67;;;4.47;;
41897;SDS011;27576;53.366;-1.498;2023-03-23T06:34:14;21.40;;;4.15;;
41897;SDS011;27576;53.366;-1.498;2023-03-23T06:36:39;29.33;;;5.05;;
41897;SDS011;27576;53.366;-1.498;2023-03-23T06:39:05;18.83;;;3.63;;
41897;SDS011;27576;53.366;-1.498;2023-03-23T06:41:31;22.92;;;4.93;;
41897;SDS011;27576;53.366;-1.498;2023-03-23T06:43:58;28.33;;;4.03;;
41897;SDS011;27576;53.366;-1.498;2023-03-23T06:46:24;17.70;;;3.92;;
41897;SDS011;27576;53.366;-1.498;2023-03-23T06:48:49;21.90;;;4.53;;
41897;SDS011;27576;53.366;-1.498;2023-03-23T06:51:15;18.38;;;4.00;;
41897;SDS011;27576;53.366;-1.498;2023-03-23T06:53:42;24.85;;;5.70;;
41897;SDS011;27576;53.366;-1.498;2023-03-23T06:56:07;22.25;;;4.45;;
41897;SDS011;27576;53.366;-1.498;2023-03-23T06:58:33;21.85;;;4.43;;
41897;SDS011;27576;53.366;-1.498;2023-03-23T07:00:58;22.45;;;4.45;;
41897;SDS011;27576;53.366;-1.498;2023-03-23T07:03:24;21.55;;;4.40;;
41897;SDS011;27576;53.366;-1.498;2023-03-23T07:05:51;23.40;;;4.32;;
41897;SDS011;27576;53.366;-1.498;2023-03-23T07:08:16;28.95;;;4.78;;
41897;SDS011;27576;53.366;-1.498;2023-03-23T07:10:41;24.85;;;4.43;;
41897;SDS011;27576;53.366;-1.498;2023-03-23T07:13:07;23.55;;;4.30;;
41897;SDS011;27576;53.366;-1.498;2023-03-23T07:15:32;23.35;;;5.07;;
41897;SDS011;27576;53.366;-1.498;2023-03-23T07:18:03;24.10;;;4.97;;
41897;SDS011;27576;53.366;-1.498;2023-03-23T07:20:28;24.23;;;5.82;;
41897;SDS011;27576;53.366;-1.498;2023-03-23T07:22:53;23.27;;;4.82;;
41897;SDS011;27576;53.366;-1.498;2023-03-23T07:25:19;20.95;;;4.70;;
41897;SDS011;27576;53.366;-1.498;2023-03-23T07:27:45;29.30;;;4.60;;
41897;SDS011;27576;53.366;-1.498;2023-03-23T07:30:11;22.75;;;5.45;;
41897;SDS011;27576;53.366;-1.498;2023-03-23T07:32:37;26.73;;;5.50;;
41897;SDS011;27576;53.366;-1.498;2023-03-23T07:35:05;26.60;;;5.28;;
41897;SDS011;27576;53.366;-1.498;2023-03-23T07:37:32;26.80;;;5.35;;
41897;SDS011;27576;53.366;-1.498;2023-03-23T07:39:57;28.80;;;6.22;;
41897;SDS011;27576;53.366;-1.498;2023-03-23T07:42:23;30.83;;;5.50;;
41897;SDS011;27576;53.366;-1.498;2023-03-23T07:44:48;27.20;;;5.28;;
41897;SDS011;27576;53.366;-1.498;2023-03-23T07:47:14;25.98;;;4.88;;
41897;SDS011;27576;53.366;-1.498;2023-03-23T07:49:39;25.33;;;5.10;;
41897;SDS011;27576;53.366;-1.498;2023-03-23T07:52:05;26.05;;;5.40;;
41897;SDS011;27576;53.366;-1.498;2023-03-23T07:54:30;26.63;;;5.68;;
41897;SDS011;27576;53.366;-1.498;2023-03-23T07:56:56;32.70;;;5.10;;
41897;SDS011;27576;53.366;-1.498;2023-03-23T07:59:21;30.40;;;5.70;;
41897;SDS011;27576;53.366;-1.498;2023-03-23T08:01:47;21.48;;;4.40;;
41897;SDS011;27576;53.366;-1.498;2023-03-23T08:04:12;26.38;;;5.20;;
41897;SDS011;27576;53.366;-1.498;2023-03-23T08:06:38;34.17;;;5.07;;
41897;SDS011;27576;53.366;-1.498;2023-03-23T08:09:04;25.10;;;4.53;;
41897;SDS011;27576;53.366;-1.498;2023-03-23T08:11:33;30.42;;;5.57;;
41897;SDS011;27576;53.366;-1.498;2023-03-23T08:13:59;30.55;;;5.47;;
41897;SDS011;27576;53.366;-1.498;2023-03-23T08:16:24;22.90;;;4.68;;
41897;SDS011;27576;53.366;-1.498;2023-03-23T08:18:50;28.63;;;4.97;;
41897;SDS011;27576;53.366;-1.498;2023-03-23T08:21:15;30.42;;;5.43;;
41897;SDS011;27576;53.366;-1.498;2023-03-23T08:23:41;29.58;;;5.50;;
41897;SDS011;27576;53.366;-1.498;2023-03-23T08:26:07;26.05;;;4.45;;
41897;SDS011;27576;53.366;-1.498;2023-03-23T08:28:33;23.98;;;4.60;;
41897;SDS011;27576;53.366;-1.498;2023-03-23T08:31:00;29.05;;;5.45;;
41897;SDS011;27576;53.366;-1.498;2023-03-23T08:33:31;19.73;;;4.15;;
41897;SDS011;27576;53.366;-1.498;2023-03-23T08:35:57;28.90;;;5.30;;
41897;SDS011;27576;53.366;-1.498;2023-03-23T08:38:26;20.90;;;4.63;;
41897;SDS011;27576;53.366;-1.498;2023-03-23T08:40:56;17.35;;;4.22;;
41897;SDS011;27576;53.366;-1.498;2023-03-23T08:43:26;26.88;;;5.07;;
41897;SDS011;27576;53.366;-1.498;2023-03-23T08:45:52;28.95;;;5.97;;
41897;SDS011;27576;53.366;-1.498;2023-03-23T08:48:18;29.70;;;4.32;;
41897;SDS011;27576;53.366;-1.498;2023-03-23T08:50:44;24.90;;;4.60;;
41897;SDS011;27576;53.366;-1.498;2023-03-23T08:53:10;24.48;;;4.88;;
41897;SDS011;27576;53.366;-1.498;2023-03-23T08:55:36;23.42;;;4.57;;
41897;SDS011;27576;53.366;-1.498;2023-03-23T08:58:02;20.63;;;4.47;;
41897;SDS011;27576;53.366;-1.498;2023-03-23T09:00:28;22.25;;;5.00;;
41897;SDS011;27576;53.366;-1.498;2023-03-23T09:02:54;27.35;;;5.10;;
41897;SDS011;27576;53.366;-1.498;2023-03-23T09:05:22;23.63;;;5.07;;
41897;SDS011;27576;53.366;-1.498;2023-03-23T09:07:50;16.73;;;3.83;;
41897;SDS011;27576;53.366;-1.498;2023-03-23T09:10:17;18.25;;;4.07;;
41897;SDS011;27576;53.366;-1.498;2023-03-23T09:12:47;19.13;;;5.15;;
41897;SDS011;27576;53.366;-1.498;2023-03-23T09:15:14;19.63;;;4.25;;
41897;SDS011;27576;53.366;-1.498;2023-03-23T09:17:42;22.95;;;5.07;;
41897;SDS011;27576;53.366;-1.498;2023-03-23T09:20:09;24.70;;;4.50;;
41897;SDS011;27576;53.366;-1.498;2023-03-23T09:22:39;26.58;;;4.60;;
41897;SDS011;27576;53.366;-1.498;2023-03-23T09:25:07;21.73;;;4.63;;
41897;SDS011;27576;53.366;-1.498;2023-03-23T09:27:34;18.98;;;4.95;;
41897;SDS011;27576;53.366;-1.498;2023-03-23T09:30:02;24.30;;;4.28;;
41897;SDS011;27576;53.366;-1.498;2023-03-23T09:32:31;22.10;;;4.55;;
41897;SDS011;27576;53.366;-1.498;2023-03-23T09:35:00;25.60;;;4.95;;
41897;SDS011;27576;53.366;-1.498;2023-03-23T09:37:26;23.77;;;4.30;;
41897;SDS011;27576;53.366;-1.498;2023-03-23T09:39:51;20.90;;;4.22;;
41897;SDS011;27576;53.366;-1.498;2023-03-23T09:42:34;17.20;;;4.50;;
41897;SDS011;27576;53.366;-1.498;2023-03-23T09:48:00;22.95;;;4.32;;
41897;SDS011;27576;53.366;-1.498;2023-03-23T09:50:31;17.40;;;3.30;;
41897;SDS011;27576;53.366;-1.498;2023-03-23T09:53:10;22.23;;;4.03;;
41897;SDS011;27576;53.366;-1.498;2023-03-23T09:55:43;18.65;;;3.67;;
41897;SDS011;27576;53.366;-1.498;2023-03-23T10:01:08;22.48;;;4.28;;
41897;SDS011;27576;53.366;-1.498;2023-03-23T10:03:43;18.75;;;4.53;;
41897;SDS011;27576;53.366;-1.498;2023-03-23T10:06:11;18.70;;;4.28;;
41897;SDS011;27576;53.366;-1.498;2023-03-23T10:08:43;18.35;;;4.35;;
41897;SDS011;27576;53.366;-1.498;2023-03-23T10:11:21;22.55;;;3.78;;
41897;SDS011;27576;53.366;-1.498;2023-03-23T10:17:00;20.80;;;3.97;;
41897;SDS011;27576;53.366;-1.498;2023-03-23T10:22:42;16.52;;;3.47;;
41897;SDS011;27576;53.366;-1.498;2023-03-23T10:25:28;16.17;;;4.38;;
41897;SDS011;27576;53.366;-1.498;2023-03-23T10:30:39;17.92;;;3.92;;
41897;SDS011;27576;53.366;-1.498;2023-03-23T10:33:54;20.90;;;4.32;;
41897;SDS011;27576;53.366;-1.498;2023-03-23T10:41:39;27.17;;;4.95;;
41897;SDS011;27576;53.366;-1.498;2023-03-23T10:44:20;14.40;;;3.90;;
41897;SDS011;27576;53.366;-1.498;2023-03-23T10:49:21;20.65;;;3.95;;
41897;SDS011;27576;53.366;-1.498;2023-03-23T10:52:07;23.20;;;5.93;;
41897;SDS011;27576;53.366;-1.498;2023-03-23T10:57:41;23.33;;;4.97;;
41897;SDS011;27576;53.366;-1.498;2023-03-23T11:02:46;19.30;;;4.35;;
41897;SDS011;27576;53.366;-1.498;2023-03-23T11:05:23;20.80;;;4.13;;
41897;SDS011;27576;53.366;-1.498;2023-03-23T11:07:54;15.95;;;3.65;;
41897;SDS011;27576;53.366;-1.498;2023-03-23T11:12:56;17.48;;;3.30;;
41897;SDS011;27576;53.366;-1.498;2023-03-23T11:18:01;17.83;;;4.15;;
41897;SDS011;27576;53.366;-1.498;2023-03-23T11:20:29;20.70;;;4.38;;
41897;SDS011;27576;53.366;-1.498;2023-03-23T11:23:00;23.05;;;4.15;;
41897;SDS011;27576;53.366;-1.498;2023-03-23T11:25:32;19.95;;;3.50;;
41897;SDS011;27576;53.366;-1.498;2023-03-23T11:27:58;18.35;;;3.83;;
41897;SDS011;27576;53.366;-1.498;2023-03-23T11:30:26;24.65;;;3.90;;
41897;SDS011;27576;53.366;-1.498;2023-03-23T11:32:55;12.93;;;3.20;;
41897;SDS011;27576;53.366;-1.498;2023-03-23T11:35:26;18.73;;;3.88;;
41897;SDS011;27576;53.366;-1.498;2023-03-23T11:37:54;20.73;;;3.95;;
41897;SDS011;27576;53.366;-1.498;2023-03-23T11:40:25;17.63;;;3.65;;
41897;SDS011;27576;53.366;-1.498;2023-03-23T11:45:34;19.38;;;3.85;;
41897;SDS011;27576;53.366;-1.498;2023-03-23T11:58:52;9.32;;;2.45;;
41897;SDS011;27576;53.366;-1.498;2023-03-23T12:06:15;13.77;;;2.83;;
41897;SDS011;27576;53.366;-1.498;2023-03-23T12:27:47;15.18;;;3.83;;
41897;SDS011;27576;53.366;-1.498;2023-03-23T12:42:28;11.57;;;3.65;;
41897;SDS011;27576;53.366;-1.498;2023-03-23T12:45:11;19.33;;;4.30;;
41897;SDS011;27576;53.366;-1.498;2023-03-23T12:47:53;11.65;;;4.13;;
41897;SDS011;27576;53.366;-1.498;2023-03-23T12:50:31;12.07;;;3.08;;
41897;SDS011;27576;53.366;-1.498;2023-03-23T12:53:10;3.95;;;1.48;;
41897;SDS011;27576;53.366;-1.498;2023-03-23T12:55:44;3.08;;;1.45;;
41897;SDS011;27576;53.366;-1.498;2023-03-23T12:58:49;7.53;;;1.95;;
41897;SDS011;27576;53.366;-1.498;2023-03-23T13:01:14;8.32;;;2.47;;
41897;SDS011;27576;53.366;-1.498;2023-03-23T13:09:22;10.25;;;3.13;;
41897;SDS011;27576;53.366;-1.498;2023-03-23T13:11:53;8.43;;;2.78;;
41897;SDS011;27576;53.366;-1.498;2023-03-23T13:14:29;9.57;;;2.90;;
41897;SDS011;27576;53.366;-1.498;2023-03-23T13:25:46;7.10;;;1.88;;
41897;SDS011;27576;53.366;-1.498;2023-03-23T13:28:22;5.97;;;1.80;;
41897;SDS011;27576;53.366;-1.498;2023-03-23T13:33:58;6.13;;;2.13;;
41897;SDS011;27576;53.366;-1.498;2023-03-23T13:36:29;5.20;;;1.65;;
41897;SDS011;27576;53.366;-1.498;2023-03-23T13:39:02;7.07;;;1.80;;
41897;SDS011;27576;53.366;-1.498;2023-03-23T13:41:32;6.45;;;2.10;;
41897;SDS011;27576;53.366;-1.498;2023-03-23T13:44:39;6.68;;;2.25;;
41897;SDS011;27576;53.366;-1.498;2023-03-23T13:49:59;8.50;;;2.67;;
41897;SDS011;27576;53.366;-1.498;2023-03-23T14:08:36;11.30;;;2.80;;
41897;SDS011;27576;53.366;-1.498;2023-03-23T14:11:15;9.88;;;2.50;;
41897;SDS011;27576;53.366;-1.498;2023-03-23T14:14:07;20.02;;;3.00;;
41897;SDS011;27576;53.366;-1.498;2023-03-23T14:16:53;9.07;;;3.13;;
41897;SDS011;27576;53.366;-1.498;2023-03-23T14:19:31;10.82;;;2.85;;
41897;SDS011;27576;53.366;-1.498;2023-03-23T14:21:58;9.18;;;2.50;;
41897;SDS011;27576;53.366;-1.498;2023-03-23T14:24:28;14.48;;;3.53;;
41897;SDS011;27576;53.366;-1.498;2023-03-23T14:27:30;7.38;;;2.50;;
41897;SDS011;27576;53.366;-1.498;2023-03-23T14:30:01;9.88;;;3.28;;
41897;SDS011;27576;53.366;-1.498;2023-03-23T14:32:30;8.00;;;2.30;;
41897;SDS011;27576;53.366;-1.498;2023-03-23T14:34:57;9.15;;;2.05;;
41897;SDS011;27576;53.366;-1.498;2023-03-23T14:37:23;9.07;;;2.50;;
41897;SDS011;27576;53.366;-1.498;2023-03-23T14:39:51;8.20;;;1.85;;
41897;SDS011;27576;53.366;-1.498;2023-03-23T14:42:20;8.65;;;2.60;;
41897;SDS011;27576;53.366;-1.498;2023-03-23T14:44:52;10.50;;;2.30;;
41897;SDS011;27576;53.366;-1.498;2023-03-23T14:47:31;14.88;;;3.65;;
41897;SDS011;27576;53.366;-1.498;2023-03-23T14:50:02;13.70;;;3.65;;
41897;SDS011;27576;53.366;-1.498;2023-03-23T14:52:34;14.45;;;3.42;;
41897;SDS011;27576;53.366;-1.498;2023-03-23T14:55:34;10.93;;;2.83;;
41897;SDS011;27576;53.366;-1.498;2023-03-23T14:57:56;7.10;;;2.45;;
41897;SDS011;27576;53.366;-1.498;2023-03-23T15:00:34;10.10;;;3.00;;
41897;SDS011;27576;53.366;-1.498;2023-03-23T15:03:04;10.23;;;2.20;;
41897;SDS011;27576;53.366;-1.498;2023-03-23T15:05:35;9.63;;;2.67;;
41897;SDS011;27576;53.366;-1.498;2023-03-23T15:08:06;8.52;;;2.35;;
41897;SDS011;27576;53.366;-1.498;2023-03-23T15:10:40;10.77;;;2.55;;
41897;SDS011;27576;53.366;-1.498;2023-03-23T15:13:05;12.68;;;2.90;;
41897;SDS011;27576;53.366;-1.498;2023-03-23T15:15:35;12.85;;;3.22;;
41897;SDS011;27576;53.366;-1.498;2023-03-23T15:18:01;13.80;;;3.00;;
41897;SDS011;27576;53.366;-1.498;2023-03-23T15:20:32;12.05;;;2.78;;
41897;SDS011;27576;53.366;-1.498;2023-03-23T15:23:16;10.57;;;2.63;;
41897;SDS011;27576;53.366;-1.498;2023-03-23T15:25:50;13.75;;;3.05;;
41897;SDS011;27576;53.366;-1.498;2023-03-23T15:28:18;10.60;;;2.70;;
41897;SDS011;27576;53.366;-1.498;2023-03-23T15:30:49;10.98;;;3.13;;
41897;SDS011;27576;53.366;-1.498;2023-03-23T15:33:17;13.05;;;3.10;;
41897;SDS011;27576;53.366;-1.498;2023-03-23T15:35:47;15.15;;;3.05;;
41897;SDS011;27576;53.366;-1.498;2023-03-23T15:38:17;8.43;;;2.60;;
41897;SDS011;27576;53.366;-1.498;2023-03-23T15:40:48;8.45;;;2.33;;
41897;SDS011;27576;53.366;-1.498;2023-03-23T15:43:22;9.85;;;2.53;;
41897;SDS011;27576;53.366;-1.498;2023-03-23T15:48:21;6.78;;;2.40;;
41897;SDS011;27576;53.366;-1.498;2023-03-23T15:50:48;10.05;;;2.50;;
41897;SDS011;27576;53.366;-1.498;2023-03-23T15:53:34;14.13;;;2.92;;
41897;SDS011;27576;53.366;-1.498;2023-03-23T15:56:03;10.38;;;2.72;;
41897;SDS011;27576;53.366;-1.498;2023-03-23T15:58:30;11.77;;;3.08;;
41897;SDS011;27576;53.366;-1.498;2023-03-23T16:00:57;11.93;;;3.05;;
41897;SDS011;27576;53.366;-1.498;2023-03-23T16:03:29;15.18;;;3.58;;
41897;SDS011;27576;53.366;-1.498;2023-03-23T16:06:19;13.55;;;3.40;;
41897;SDS011;27576;53.366;-1.498;2023-03-23T16:08:45;18.17;;;3.53;;
41897;SDS011;27576;53.366;-1.498;2023-03-23T16:11:12;17.77;;;3.63;;
41897;SDS011;27576;53.366;-1.498;2023-03-23T16:13:39;12.20;;;3.42;;
41897;SDS011;27576;53.366;-1.498;2023-03-23T16:16:05;14.10;;;3.83;;
41897;SDS011;27576;53.366;-1.498;2023-03-23T16:18:34;14.02;;;2.95;;
41897;SDS011;27576;53.366;-1.498;2023-03-23T16:20:59;13.32;;;3.03;;
41897;SDS011;27576;53.366;-1.498;2023-03-23T16:23:25;12.63;;;4.07;;
41897;SDS011;27576;53.366;-1.498;2023-03-23T16:25:51;18.00;;;3.95;;
41897;SDS011;27576;53.366;-1.498;2023-03-23T16:28:16;11.00;;;2.97;;
41897;SDS011;27576;53.366;-1.498;2023-03-23T16:30:43;15.52;;;3.67;;
41897;SDS011;27576;53.366;-1.498;2023-03-23T16:33:09;10.77;;;3.00;;
41897;SDS011;27576;53.366;-1.498;2023-03-23T16:35:35;15.10;;;4.30;;
41897;SDS011;27576;53.366;-1.498;2023-03-23T16:38:01;11.00;;;3.10;;
41897;SDS011;27576;53.366;-1.498;2023-03-23T16:40:27;15.43;;;3.50;;
41897;SDS011;27576;53.366;-1.498;2023-03-23T16:42:53;12.32;;;3.47;;
41897;SDS011;27576;53.366;-1.498;2023-03-23T16:45:19;14.85;;;3.35;;
41897;SDS011;27576;53.366;-1.498;2023-03-23T16:47:45;16.15;;;3.28;;
41897;SDS011;27576;53.366;-1.498;2023-03-23T16:50:11;15.15;;;3.78;;
41897;SDS011;27576;53.366;-1.498;2023-03-23T16:52:39;12.90;;;3.28;;
41897;SDS011;27576;53.366;-1.498;2023-03-23T16:55:06;13.38;;;3.55;;
41897;SDS011;27576;53.366;-1.498;2023-03-23T16:57:33;11.80;;;2.90;;
41897;SDS011;27576;53.366;-1.498;2023-03-23T17:00:01;17.35;;;3.45;;
41897;SDS011;27576;53.366;-1.498;2023-03-23T17:02:31;19.17;;;3.63;;
41897;SDS011;27576;53.366;-1.498;2023-03-23T17:04:57;12.95;;;3.22;;